Time;durP1;ratioP1;P1;durP2;ratioP2;P2;SDS_P1;SDS_P2;PMS_P1;PMS_P2;Temp;Humidity;BMP_temperature;BMP_pressure;BME280_temperature;BME280_humidity;BME280_pressure;Samples;Min_cycle;Max_cycle;Signal;HPM_P1;HPM_P2
2022/05/05 00:00:59;;;;;;;;;;;;;;;16.94;60.12;99967.84;4410823;32;20414;-93
2022/05/05 00:03:29;;;;;;;;;;;;;;;16.74;60.10;99971.56;4411730;32;20040;-91
2022/05/05 00:05:54;;;;;;;;;;;;;;;16.55;60.10;99969.87;4399157;32;20009;-93
2022/05/05 00:08:23;;;;;;;;;;;;;;;16.69;60.10;99970.97;4411729;32;20337;-93
2022/05/05 00:16:19;;;;;;;;;;;;;;;16.44;60.09;99968.75;4413696;32;19993;-94
2022/05/05 00:18:44;;;;;;;;;;;;;;;16.46;60.08;99972.16;4399484;32;19994;-93
2022/05/05 00:21:12;;;;;;;;;;;;;;;16.38;60.08;99969.94;4399111;32;19982;-94
2022/05/05 00:23:37;;;;;;;;;;;;;;;16.37;60.09;99968.25;4399768;32;20619;-94
2022/05/05 00:26:03;;;;;;;;;;;;;;;16.31;60.09;99976.41;4399598;32;19986;-93
2022/05/05 00:28:28;;;;;;;;;;;;;;;16.32;60.09;99974.62;4399712;32;19989;-94
2022/05/05 00:30:59;;;;;;;;;;;;;;;16.20;60.08;99973.50;4399809;32;20037;-93
2022/05/05 00:33:24;;;;;;;;;;;;;;;16.15;60.07;99975.53;4412183;32;19978;-93
2022/05/05 00:35:50;;;;;;;;;;;;;;;16.04;60.06;99973.44;4399275;32;20001;-94
2022/05/05 00:38:15;;;;;;;;;;;;;;;16.06;60.07;99968.09;4399702;32;20025;-93
2022/05/05 00:40:42;;;;;;;;;;;;;;;16.16;60.08;99969.34;4399698;32;20265;-91
2022/05/05 00:43:07;;;;;;;;;;;;;;;16.21;60.08;99957.66;4412742;32;20042;-94
2022/05/05 00:45:32;;;;;;;;;;;;;;;16.31;60.09;99955.41;4426571;32;20031;-90
2022/05/05 00:48:07;;;;;;;;;;;;;;;16.28;60.08;99952.94;4426821;32;19989;-91
2022/05/05 00:50:33;;;;;;;;;;;;;;;16.24;60.08;99954.87;4426135;32;20763;-92
2022/05/05 00:52:58;;;;;;;;;;;;;;;16.28;60.08;99950.31;4425339;32;20043;-91
2022/05/05 00:55:23;;;;;;;;;;;;;;;16.02;60.07;99959.53;4412799;32;20012;-91
2022/05/05 00:57:49;;;;;;;;;;;;;;;16.06;60.07;99942.69;4425383;32;19999;-90
2022/05/05 01:00:15;;;;;;;;;;;;;;;16.15;60.07;99946.63;4412497;32;20337;-93
2022/05/05 01:02:40;;;;;;;;;;;;;;;15.93;60.07;99953.00;4412844;32;19985;-90
2022/05/05 01:05:05;;;;;;;;;;;;;;;15.93;60.05;99954.75;4425791;32;20052;-92
2022/05/05 01:07:31;;;;;;;;;;;;;;;16.12;60.07;99950.28;4425877;32;19993;-91
2022/05/05 01:09:56;;;;;;;;;;;;;;;15.95;60.07;99959.00;4412879;32;20322;-91
2022/05/05 01:12:23;;;;;;;;;;;;;;;15.86;60.06;99958.62;4425734;32;19986;-91
2022/05/05 01:14:49;;;;;;;;;;;;;;;15.88;60.06;99955.00;4425711;32;20060;-92
2022/05/05 01:17:14;;;;;;;;;;;;;;;15.85;60.05;99954.28;4425456;32;19985;-90
2022/05/05 01:19:39;;;;;;;;;;;;;;;15.81;60.06;99958.00;4425671;32;20322;-91
2022/05/05 01:22:06;;;;;;;;;;;;;;;15.93;60.07;99966.12;4425752;32;20698;-92
2022/05/05 01:29:59;;;;;;;;;;;;;;;15.84;60.05;99961.31;4427761;32;20034;-90
2022/05/05 01:32:31;;;;;;;;;;;;;;;15.84;60.05;99963.94;4426487;32;20013;-90
2022/05/05 01:34:56;;;;;;;;;;;;;;;15.62;60.04;99968.56;4426527;32;20330;-89
2022/05/05 01:37:22;;;;;;;;;;;;;;;15.90;60.06;99962.81;4426796;32;20027;-90
2022/05/05 01:39:48;;;;;;;;;;;;;;;16.11;60.07;99964.34;4424839;32;20366;-91
2022/05/05 01:42:13;;;;;;;;;;;;;;;15.90;60.06;99968.06;4425225;32;19981;-90
2022/05/05 01:44:38;;;;;;;;;;;;;;;15.66;60.05;99975.38;4425248;32;20334;-90
2022/05/05 01:47:04;;;;;;;;;;;;;;;15.83;60.05;99980.59;4412564;32;20360;-89
2022/05/05 01:49:29;;;;;;;;;;;;;;;15.80;60.05;99983.38;4426478;32;19985;-92
2022/05/05 01:51:58;;;;;;;;;;;;;;;15.51;60.04;99997.91;4427162;32;19978;-93
2022/05/05 01:54:23;;;;;;;;;;;;;;;15.64;60.05;99996.44;4427853;32;20001;-91
2022/05/05 01:56:48;;;;;;;;;;;;;;;15.54;60.04;100007.41;4427799;32;19992;-93
2022/05/05 01:59:14;;;;;;;;;;;;;;;15.47;60.03;100016.50;4427422;32;19996;-92
2022/05/05 02:01:52;;;;;;;;;;;;;;;15.45;60.04;100028.84;4428061;32;19981;-93
2022/05/05 02:04:17;;;;;;;;;;;;;;;15.22;60.02;100027.31;4428773;32;19998;-92
2022/05/05 02:06:42;;;;;;;;;;;;;;;15.12;60.02;100039.97;4427459;32;20005;-94
2022/05/05 02:09:10;;;;;;;;;;;;;;;15.04;60.02;100035.09;4415093;32;20034;-92
2022/05/05 02:11:41;;;;;;;;;;;;;;;14.95;60.01;100035.50;4427652;32;20023;-92
2022/05/05 02:14:06;;;;;;;;;;;;;;;14.90;60.00;100037.47;4427317;32;20004;-92
2022/05/05 02:16:41;;;;;;;;;;;;;;;14.79;60.00;100041.50;4426483;32;19994;-91
2022/05/05 02:19:06;;;;;;;;;;;;;;;14.81;60.00;100048.38;4428007;32;19993;-94
2022/05/05 02:21:31;;;;;;;;;;;;;;;14.91;60.00;100044.44;4426388;32;19996;-94
2022/05/05 02:23:56;;;;;;;;;;;;;;;15.08;60.01;100043.66;4426176;32;20003;-93
2022/05/05 02:26:22;;;;;;;;;;;;;;;15.05;60.01;100041.19;4426219;32;19997;-93
2022/05/05 02:28:50;;;;;;;;;;;;;;;14.72;60.00;100044.41;4425830;32;20281;-91
2022/05/05 02:31:16;;;;;;;;;;;;;;;14.70;59.99;100040.16;4426927;32;20254;-93
2022/05/05 02:33:41;;;;;;;;;;;;;;;14.72;60.00;100041.78;4427049;32;19997;-94
2022/05/05 02:38:50;;;;;;;;;;;;;;;14.90;60.00;100037.47;4429002;32;19992;-93
2022/05/05 02:41:16;;;;;;;;;;;;;;;14.72;60.00;100038.31;4426526;32;20021;-93
2022/05/05 02:43:41;;;;;;;;;;;;;;;14.69;59.99;100036.69;4414050;32;20095;-94
2022/05/05 02:46:06;;;;;;;;;;;;;;;14.78;60.00;100043.28;4426750;32;19989;-95
2022/05/05 02:48:32;;;;;;;;;;;;;;;14.51;59.98;100044.50;4426796;32;20000;-94
2022/05/05 02:51:04;;;;;;;;;;;;;;;14.47;59.98;100035.06;4426720;32;19982;-93
2022/05/05 02:56:16;;;;;;;;;;;;;;;14.49;59.99;100033.22;4428977;32;20000;-93
2022/05/05 02:58:41;;;;;;;;;;;;;;;14.55;60.00;100031.19;4426884;32;20101;-93
2022/05/05 03:01:06;;;;;;;;;;;;;;;14.51;59.98;100028.78;4426670;32;20269;-93
2022/05/05 03:03:32;;;;;;;;;;;;;;;14.46;59.98;100029.00;4426715;32;20033;-94
2022/05/05 03:05:57;;;;;;;;;;;;;;;14.53;59.98;100030.41;4426523;32;19989;-94
2022/05/05 03:08:22;;;;;;;;;;;;;;;14.46;59.98;100030.75;4426864;32;19985;-94
2022/05/05 03:10:47;;;;;;;;;;;;;;;14.42;59.98;100030.81;4427605;32;20297;-94
2022/05/05 03:13:13;;;;;;;;;;;;;;;14.41;59.98;100030.91;4427585;32;20020;-96
2022/05/05 03:15:38;;;;;;;;;;;;;;;14.50;59.98;100034.94;4426657;32;20004;-94
2022/05/05 03:18:03;;;;;;;;;;;;;;;14.47;59.98;100033.31;4426702;32;20033;-94
2022/05/05 03:20:29;;;;;;;;;;;;;;;14.52;59.98;100028.72;4423519;32;19986;-94
2022/05/05 03:22:54;;;;;;;;;;;;;;;14.68;59.99;100024.50;4398746;32;19998;-94
2022/05/05 03:25:19;;;;;;;;;;;;;;;14.58;59.99;100025.81;4410114;32;20001;-91
2022/05/05 03:27:45;;;;;;;;;;;;;;;14.57;59.99;100023.25;4399123;32;19981;-95
2022/05/05 03:30:10;;;;;;;;;;;;;;;14.58;59.99;100024.97;4403029;32;20028;-93
2022/05/05 03:32:35;;;;;;;;;;;;;;;14.74;60.00;100018.12;4397964;32;20064;-90
2022/05/05 03:35:01;;;;;;;;;;;;;;;14.78;60.00;100014.44;4400977;32;20020;-94
2022/05/05 03:37:30;;;;;;;;;;;;;;;14.73;60.00;100013.81;4400064;32;19974;-95
2022/05/05 03:39:55;;;;;;;;;;;;;;;14.78;59.99;100024.09;4401241;32;19982;-95
2022/05/05 03:42:20;;;;;;;;;;;;;;;14.82;60.00;100023.03;4400714;32;19985;-94
2022/05/05 03:44:45;;;;;;;;;;;;;;;14.87;60.01;100018.41;4401787;32;20025;-94
2022/05/05 03:47:11;;;;;;;;;;;;;;;14.90;60.00;100013.87;4400756;32;20028;-95
2022/05/05 03:49:37;;;;;;;;;;;;;;;14.84;59.99;100011.53;4402307;32;20286;-95
2022/05/05 03:52:03;;;;;;;;;;;;;;;14.85;60.00;100012.41;4415716;32;19976;-95
2022/05/05 03:54:28;;;;;;;;;;;;;;;14.82;60.00;100012.53;4402627;32;19993;-93
2022/05/05 03:56:53;;;;;;;;;;;;;;;14.84;60.00;100024.66;4402819;32;20003;-94
2022/05/05 03:59:22;;;;;;;;;;;;;;;14.92;60.01;100016.47;4400335;32;19969;-95
2022/05/05 04:01:47;;;;;;;;;;;;;;;14.95;60.01;100021.56;4400628;32;19994;-93
2022/05/05 04:04:15;;;;;;;;;;;;;;;14.98;60.01;100024.88;4400352;32;19989;-93
2022/05/05 04:06:41;;;;;;;;;;;;;;;15.19;60.02;100017.81;4400406;32;20692;-92
2022/05/05 04:09:06;;;;;;;;;;;;;;;15.22;60.02;100020.28;4400100;32;19993;-92
2022/05/05 04:11:32;;;;;;;;;;;;;;;15.20;60.02;100021.28;4399648;32;20013;-94
2022/05/05 04:13:58;;;;;;;;;;;;;;;15.32;60.03;100018.06;4399577;32;19990;-94
2022/05/05 04:16:23;;;;;;;;;;;;;;;15.36;60.03;100019.63;4400051;32;19992;-95
2022/05/05 04:18:51;;;;;;;;;;;;;;;15.20;60.02;100022.12;4399830;32;19974;-94
2022/05/05 04:21:16;;;;;;;;;;;;;;;15.40;60.03;100026.44;4399913;32;20049;-92
2022/05/05 04:23:42;;;;;;;;;;;;;;;15.43;60.03;100025.44;4401264;32;19986;-94
2022/05/05 04:26:08;;;;;;;;;;;;;;;15.36;60.03;100027.50;4405180;32;19990;-93
2022/05/05 04:28:33;;;;;;;;;;;;;;;15.65;60.05;100032.25;4416645;32;19957;-94
2022/05/05 04:30:58;;;;;;;;;;;;;;;15.94;60.06;100035.22;4400443;32;20004;-93
2022/05/05 04:33:23;;;;;;;;;;;;;;;15.96;60.06;100025.50;4399910;32;19998;-94
2022/05/05 04:35:51;;;;;;;;;;;;;;;15.84;60.05;100039.22;4399622;32;20017;-95
2022/05/05 04:38:16;;;;;;;;;;;;;;;15.95;60.07;100027.28;4399715;32;20942;-93
2022/05/05 04:40:42;;;;;;;;;;;;;;;15.87;60.06;100037.31;4412297;32;19997;-94
2022/05/05 04:43:07;;;;;;;;;;;;;;;15.92;60.05;100037.06;4399691;32;19997;-93
2022/05/05 04:45:32;;;;;;;;;;;;;;;16.02;60.07;100032.19;4399436;32;20307;-91
2022/05/05 04:47:58;;;;;;;;;;;;;;;16.18;60.08;100041.88;4399059;32;19981;-92
2022/05/05 04:50:23;;;;;;;;;;;;;;;16.05;60.06;100032.03;4412050;32;19994;-92
2022/05/05 04:52:49;;;;;;;;;;;;;;;16.10;60.07;100041.41;4399682;32;20014;-93
2022/05/05 04:55:14;;;;;;;;;;;;;;;16.16;60.08;100027.97;4399781;32;19969;-94
2022/05/05 04:57:39;;;;;;;;;;;;;;;16.39;60.08;100029.44;4399926;32;19986;-94
2022/05/05 05:00:05;;;;;;;;;;;;;;;16.34;60.09;100033.22;4400256;32;20000;-94
2022/05/05 05:02:30;;;;;;;;;;;;;;;16.33;60.09;100031.53;4399804;32;19997;-95
2022/05/05 05:04:56;;;;;;;;;;;;;;;16.42;60.09;100028.41;4400221;32;20005;-95
2022/05/05 05:07:21;;;;;;;;;;;;;;;16.48;60.09;100020.22;4399833;32;19996;-94
2022/05/05 05:09:48;;;;;;;;;;;;;;;16.57;60.09;100022.38;4400023;32;19982;-94
2022/05/05 05:12:13;;;;;;;;;;;;;;;16.70;60.11;100022.59;4400430;32;20005;-93
2022/05/05 05:14:39;;;;;;;;;;;;;;;16.77;60.11;100023.97;4399699;32;20025;-94
2022/05/05 05:17:04;;;;;;;;;;;;;;;16.69;60.09;100028.78;4399385;32;19982;-95
2022/05/05 05:19:29;;;;;;;;;;;;;;;16.83;60.10;100026.28;4399589;32;20007;-94
2022/05/05 05:21:55;;;;;;;;;;;;;;;17.07;60.12;100029.38;4398467;32;19989;-94
2022/05/05 05:24:20;;;;;;;;;;;;;;;17.14;60.12;100028.09;4397930;32;19977;-93
2022/05/05 05:26:45;;;;;;;;;;;;;;;17.28;60.13;100024.75;4398162;32;20351;-92
2022/05/05 05:29:11;;;;;;;;;;;;;;;17.31;60.14;100028.03;4398683;32;19977;-94
2022/05/05 05:31:36;;;;;;;;;;;;;;;17.50;60.14;100031.31;4398621;32;20032;-92
2022/05/05 05:34:01;;;;;;;;;;;;;;;17.58;60.14;100027.44;4398998;32;19969;-92
2022/05/05 05:36:26;;;;;;;;;;;;;;;17.58;60.14;100030.06;4399029;32;19993;-92
2022/05/05 05:38:52;;;;;;;;;;;;;;;17.67;60.15;100034.78;4399449;32;19989;-91
2022/05/05 05:41:17;;;;;;;;;;;;;;;17.74;60.15;100030.91;4411407;32;19994;-93
2022/05/05 05:43:42;;;;;;;;;;;;;;;17.69;60.15;100031.16;4398532;32;19977;-93
2022/05/05 05:46:09;;;;;;;;;;;;;;;17.90;60.16;100033.53;4398318;32;20005;-94
2022/05/05 05:48:34;;;;;;;;;;;;;;;17.98;60.16;100026.87;4399368;32;19977;-93
2022/05/05 05:50:59;;;;;;;;;;;;;;;18.14;60.17;100032.09;4399101;32;20369;-93
2022/05/05 05:53:25;;;;;;;;;;;;;;;18.20;60.18;100038.78;4399173;32;19970;-93
2022/05/05 05:55:50;;;;;;;;;;;;;;;18.25;60.19;100040.22;4399142;32;19970;-94
2022/05/05 05:58:15;;;;;;;;;;;;;;;18.37;60.18;100039.50;4399238;32;20025;-93
2022/05/05 06:00:41;;;;;;;;;;;;;;;18.45;60.19;100044.28;4398820;32;20012;-94
2022/05/05 06:05:50;;;;;;;;;;;;;;;18.55;60.20;100041.97;4413399;32;20041;-94
2022/05/05 06:08:15;;;;;;;;;;;;;;;18.81;60.21;100040.41;4398554;32;20014;-95
2022/05/05 06:10:41;;;;;;;;;;;;;;;18.89;60.21;100039.00;4398938;32;19990;-94
2022/05/05 06:13:06;;;;;;;;;;;;;;;19.05;60.22;100038.06;4411370;32;19977;-94
2022/05/05 06:15:32;;;;;;;;;;;;;;;19.19;60.23;100038.06;4398609;32;20251;-95
2022/05/05 06:17:57;;;;;;;;;;;;;;;19.43;60.24;100041.78;4398582;32;20036;-94
2022/05/05 06:20:22;;;;;;;;;;;;;;;19.56;60.25;100036.56;4411351;32;20016;-94
2022/05/05 06:22:50;;;;;;;;;;;;;;;19.64;60.25;100036.94;4398339;32;19989;-95
2022/05/05 06:25:15;;;;;;;;;;;;;;;19.84;60.26;100040.91;4411521;32;20037;-94
2022/05/05 06:27:40;;;;;;;;;;;;;;;20.08;60.27;100035.78;4398291;32;20303;-93
2022/05/05 06:30:06;;;;;;;;;;;;;;;20.24;60.29;100039.97;4411037;32;20029;-95
2022/05/05 06:32:31;;;;;;;;;;;;;;;20.50;60.30;100042.66;4411195;32;19982;-93
2022/05/05 06:34:57;;;;;;;;;;;;;;;20.80;60.32;100039.69;4398373;32;20037;-94
2022/05/05 06:37:25;;;;;;;;;;;;;;;21.00;60.33;100043.59;4398189;32;20001;-94
2022/05/05 06:39:50;;;;;;;;;;;;;;;21.17;60.33;100040.59;4398532;32;20680;-93
2022/05/05 06:42:16;;;;;;;;;;;;;;;21.24;60.33;100046.34;4398137;32;20066;-94
2022/05/05 06:44:41;;;;;;;;;;;;;;;21.40;60.35;100055.72;4398552;32;19986;-94
2022/05/05 06:47:07;;;;;;;;;;;;;;;21.25;60.33;100053.31;4398186;32;19981;-93
2022/05/05 06:49:33;;;;;;;;;;;;;;;21.19;60.34;100053.72;4398468;32;20009;-94
2022/05/05 06:51:59;;;;;;;;;;;;;;;21.10;60.33;100049.94;4398416;32;20017;-90
2022/05/05 06:54:24;;;;;;;;;;;;;;;21.09;60.33;100048.25;4398900;32;20033;-95
2022/05/05 06:56:50;;;;;;;;;;;;;;;21.11;60.33;100054.28;4397998;32;20338;-95
2022/05/05 06:59:15;;;;;;;;;;;;;;;21.03;60.33;100059.25;4398315;32;19989;-93
2022/05/05 07:01:53;;;;;;;;;;;;;;;21.07;60.32;100051.00;4399569;32;19986;-92
2022/05/05 07:07:03;;;;;;;;;;;;;;;21.23;60.33;100058.69;4414651;32;19961;-94
2022/05/05 07:12:12;;;;;;;;;;;;;;;21.47;60.34;100063.22;4412647;32;20033;-93
2022/05/05 07:14:37;;;;;;;;;;;;;;;21.57;60.36;100058.97;4410487;32;20311;-94
2022/05/05 07:17:03;;;;;;;;;;;;;;;21.58;60.36;100058.00;4397693;32;19986;-92
2022/05/05 07:19:28;;;;;;;;;;;;;;;21.68;60.36;100061.66;4410602;32;19990;-95
2022/05/05 07:21:53;;;;;;;;;;;;;;;21.86;60.38;100060.31;4397922;32;19985;-93
2022/05/05 07:24:18;;;;;;;;;;;;;;;21.78;60.36;100064.50;4397791;32;19990;-95
2022/05/05 07:26:44;;;;;;;;;;;;;;;21.63;60.37;100074.41;4397780;32;19997;-94
2022/05/05 07:29:09;;;;;;;;;;;;;;;21.67;60.36;100074.06;4397519;32;20017;-95
2022/05/05 07:31:34;;;;;;;;;;;;;;;21.69;60.36;100074.81;4397793;32;20346;-93
2022/05/05 07:33:59;;;;;;;;;;;;;;;21.46;60.35;100072.97;4397622;32;19989;-92
2022/05/05 07:36:25;;;;;;;;;;;;;;;21.34;60.35;100082.66;4397335;32;19994;-94
2022/05/05 07:38:50;;;;;;;;;;;;;;;21.32;60.34;100071.31;4397083;32;19990;-93
2022/05/05 07:41:15;;;;;;;;;;;;;;;21.36;60.35;100080.75;4397484;32;19990;-93
2022/05/05 07:43:41;;;;;;;;;;;;;;;21.57;60.36;100081.00;4397293;32;20243;-93
2022/05/05 07:46:06;;;;;;;;;;;;;;;21.67;60.36;100076.72;4397348;32;20031;-94
2022/05/05 07:48:31;;;;;;;;;;;;;;;21.94;60.37;100075.66;4397543;32;20017;-93
2022/05/05 07:50:57;;;;;;;;;;;;;;;22.03;60.39;100073.19;4397284;32;19976;-93
2022/05/05 07:53:23;;;;;;;;;;;;;;;21.95;60.38;100074.69;4410089;32;20001;-93
2022/05/05 07:55:48;;;;;;;;;;;;;;;21.89;60.38;100080.44;4409651;32;20004;-93
2022/05/05 07:58:13;;;;;;;;;;;;;;;21.98;60.38;100079.75;4396964;32;20359;-91
2022/05/05 08:00:38;;;;;;;;;;;;;;;22.10;60.39;100086.00;4396937;32;20032;-93
2022/05/05 08:03:04;;;;;;;;;;;;;;;22.14;60.39;100083.00;4396733;32;20009;-91
2022/05/05 08:05:29;;;;;;;;;;;;;;;22.35;60.41;100077.91;4396474;32;20542;-91
2022/05/05 08:07:54;;;;;;;;;;;;;;;22.54;60.41;100086.16;4397026;32;19986;-91
2022/05/05 08:10:22;;;;;;;;;;;;;;;22.82;60.42;100084.91;4396896;32;19982;-91
2022/05/05 08:12:51;;;;;;;;;;;;;;;22.84;60.43;100090.94;4398409;32;20648;-91
2022/05/05 08:15:16;;;;;;;;;;;;;;;22.70;60.42;100087.63;4399161;32;19976;-92
2022/05/05 08:17:42;;;;;;;;;;;;;;;22.65;60.42;100094.13;4399153;32;19990;-91
2022/05/05 08:20:08;;;;;;;;;;;;;;;22.83;60.43;100088.41;4399399;32;19974;-92
2022/05/05 08:22:33;;;;;;;;;;;;;;;22.84;60.43;100095.41;4399142;32;19970;-91
2022/05/05 08:30:28;;;;;;;;;;;;;;;23.05;60.44;100087.59;4413897;32;20117;-91
2022/05/05 08:32:54;;;;;;;;;;;;;;;23.33;60.44;100094.22;4411784;32;20342;-90
2022/05/05 08:35:27;;;;;;;;;;;;;;;23.35;60.46;100079.00;4399120;32;19993;-92
2022/05/05 08:37:55;;;;;;;;;;;;;;;23.55;60.46;100092.38;4412069;32;20017;-91
2022/05/05 08:40:24;;;;;;;;;;;;;;;23.65;60.46;100087.19;4398721;32;20053;-89
2022/05/05 08:42:50;;;;;;;;;;;;;;;23.84;60.48;100076.75;4398514;32;20402;-90
2022/05/05 08:45:15;;;;;;;;;;;;;;;24.03;60.49;100083.22;4398966;32;20002;-91
2022/05/05 08:47:41;;;;;;;;;;;;;;;24.05;60.50;100084.78;4398264;32;22563;-90
2022/05/05 08:50:10;;;;;;;;;;;;;;;24.28;60.50;100087.34;4398869;32;20033;-91
2022/05/05 08:52:35;;;;;;;;;;;;;;;24.36;60.50;100093.72;4398837;32;19998;-90
2022/05/05 08:55:01;;;;;;;;;;;;;;;24.38;60.51;100091.81;4398535;32;20323;-91
2022/05/05 08:57:27;;;;;;;;;;;;;;;24.42;60.50;100090.56;4398656;32;20330;-93
2022/05/05 08:59:54;;;;;;;;;;;;;;;24.61;60.52;100084.56;4411578;32;19985;-91
2022/05/05 09:02:21;;;;;;;;;;;;;;;24.46;60.52;100083.19;4411266;32;20045;-90
2022/05/05 09:04:46;;;;;;;;;;;;;;;24.65;60.53;100085.97;4411538;32;20029;-92
2022/05/05 09:07:12;;;;;;;;;;;;;;;24.82;60.53;100092.50;4398572;32;19990;-92
2022/05/05 09:09:37;;;;;;;;;;;;;;;24.94;60.54;100090.59;4398476;32;20294;-91
2022/05/05 09:12:14;;;;;;;;;;;;;;;25.08;60.55;100085.81;4411330;32;19974;-91
2022/05/05 09:14:41;;;;;;;;;;;;;;;25.19;60.55;100089.34;4411192;32;19990;-91
2022/05/05 09:17:07;;;;;;;;;;;;;;;25.35;60.56;100093.22;4398756;32;20033;-91
2022/05/05 09:19:36;;;;;;;;;;;;;;;25.30;60.56;100098.06;4411181;32;20026;-91
2022/05/05 09:22:05;;;;;;;;;;;;;;;25.42;60.57;100092.66;4398553;32;20367;-91
2022/05/05 09:24:36;;;;;;;;;;;;;;;25.54;60.58;100100.41;4397613;32;20017;-92
2022/05/05 09:27:20;;;;;;;;;;;;;;;25.73;60.58;100094.31;4398994;32;20043;-92
2022/05/05 09:30:05;;;;;;;;;;;;;;;26.12;60.60;100097.03;4411242;32;19982;-91
2022/05/05 09:32:40;;;;;;;;;;;;;;;26.33;60.61;100100.41;4411226;32;19973;-94
2022/05/05 09:35:15;;;;;;;;;;;;;;;26.24;60.61;100107.41;4411459;32;19981;-92
2022/05/05 09:37:44;;;;;;;;;;;;;;;26.17;60.61;100092.09;4400017;32;19969;-93
2022/05/05 09:40:11;;;;;;;;;;;;;;;26.19;60.61;100103.47;4402855;32;19978;-92
2022/05/05 09:42:39;;;;;;;;;;;;;;;26.16;60.60;100093.09;4414417;32;19994;-93
2022/05/05 09:45:12;;;;;;;;;;;;;;;26.29;60.61;100088.31;4399027;32;19982;-92
2022/05/05 09:47:41;;;;;;;;;;;;;;;26.57;60.63;100084.81;4398830;32;19994;-93
2022/05/05 09:50:12;;;;;;;;;;;;;;;26.63;60.64;100086.06;4398779;32;20022;-91
2022/05/05 09:58:07;;;;;;;;;;;;;;;26.78;60.63;100089.97;4413108;32;20017;-92
2022/05/05 10:00:46;;;;;;;;;;;;;;;27.08;60.65;100088.06;4398276;32;19978;-93
2022/05/05 10:05:58;;;;;;;;;;;;;;;27.41;60.67;100081.28;4413239;32;19962;-92
2022/05/05 10:08:24;;;;;;;;;;;;;;;27.50;60.68;100089.28;4398226;32;19997;-92
2022/05/05 10:10:49;;;;;;;;;;;;;;;27.76;60.69;100083.25;4398001;32;19992;-91
2022/05/05 10:13:14;;;;;;;;;;;;;;;27.90;60.70;100082.69;4410647;32;19986;-92
2022/05/05 10:15:40;;;;;;;;;;;;;;;27.91;60.70;100073.69;4410722;32;20263;-92
2022/05/05 10:18:05;;;;;;;;;;;;;;;27.94;60.69;100070.72;4398038;32;19998;-92
2022/05/05 10:20:33;;;;;;;;;;;;;;;28.12;60.71;100076.06;4410865;32;20301;-92
2022/05/05 10:23:19;;;;;;;;;;;;;;;28.25;60.72;100081.06;4397788;32;20032;-93
2022/05/05 10:25:50;;;;;;;;;;;;;;;28.40;60.72;100077.69;4398086;32;20054;-92
2022/05/05 10:28:34;;;;;;;;;;;;;;;28.35;60.71;100074.59;4398267;32;20369;-91
2022/05/05 10:30:59;;;;;;;;;;;;;;;28.48;60.73;100076.06;4410582;32;19986;-92
2022/05/05 10:33:44;;;;;;;;;;;;;;;28.61;60.74;100063.06;4398358;32;19982;-92
2022/05/05 10:36:23;;;;;;;;;;;;;;;28.76;60.73;100064.19;4410321;32;19997;-93
2022/05/05 10:38:49;;;;;;;;;;;;;;;28.71;60.74;100063.84;4410846;32;20339;-92
2022/05/05 10:41:30;;;;;;;;;;;;;;;28.59;60.73;100070.44;4410844;32;19973;-91
2022/05/05 10:44:14;;;;;;;;;;;;;;;28.47;60.73;100061.81;4410769;32;20283;-94
2022/05/05 10:46:59;;;;;;;;;;;;;;;28.45;60.73;100069.19;4410509;32;20000;-93
2022/05/05 10:49:32;;;;;;;;;;;;;;;28.59;60.72;100063.22;4410470;32;20017;-94
2022/05/05 10:52:21;;;;;;;;;;;;;;;28.65;60.74;100067.16;4410492;32;20047;-93
2022/05/05 10:54:46;;;;;;;;;;;;;;;28.71;60.74;100067.34;4402362;32;19974;-93
2022/05/05 10:57:27;;;;;;;;;;;;;;;28.92;60.75;100067.00;4397701;32;19989;-93
2022/05/05 11:00:11;;;;;;;;;;;;;;;28.97;60.75;100070.03;4410473;32;20061;-94
2022/05/05 11:02:37;;;;;;;;;;;;;;;29.14;60.76;100056.72;4410604;32;19973;-93
2022/05/05 11:05:42;;;;;;;;;;;;;;;29.30;60.77;100057.63;4397862;32;20266;-93
2022/05/05 11:08:19;;;;;;;;;;;;;;;29.37;60.77;100052.47;4349218;32;19991;-93
2022/05/05 11:10:48;;;;;;;;;;;;;;;29.52;60.78;100056.22;4361461;32;20408;-92
2022/05/05 11:13:40;;;;;;;;;;;;;;;29.57;60.79;100058.41;4394302;32;19974;-92
2022/05/05 11:22:12;;;;;;;;;;;;;;;29.73;60.79;100053.06;4412365;32;20353;-94
2022/05/05 11:24:37;;;;;;;;;;;;;;;29.74;60.79;100057.44;4397480;32;19965;-92
2022/05/05 11:27:03;;;;;;;;;;;;;;;29.36;60.77;100056.16;4397567;32;20016;-92
2022/05/05 11:29:29;;;;;;;;;;;;;;;29.22;60.76;100048.72;4397041;32;20013;-92
2022/05/05 11:31:58;;;;;;;;;;;;;;;29.19;60.77;100055.25;4397671;32;19994;-92
2022/05/05 11:34:29;;;;;;;;;;;;;;;29.12;60.77;100046.16;4397273;32;19974;-92
2022/05/05 11:36:54;;;;;;;;;;;;;;;29.21;60.77;100045.19;4409833;32;20040;-93
2022/05/05 11:39:20;;;;;;;;;;;;;;;29.34;60.77;100048.28;4396921;32;19989;-92
2022/05/05 11:41:55;;;;;;;;;;;;;;;29.44;60.78;100033.87;4397033;32;20047;-93
2022/05/05 11:44:22;;;;;;;;;;;;;;;29.49;60.79;100040.44;4397378;32;19982;-94
2022/05/05 11:46:47;;;;;;;;;;;;;;;29.65;60.79;100031.59;4397319;32;19986;-93
2022/05/05 11:49:13;;;;;;;;;;;;;;;29.72;60.80;100031.78;4399159;32;19978;-92
2022/05/05 11:51:39;;;;;;;;;;;;;;;29.79;60.79;100028.25;4399287;32;20002;-92
2022/05/05 11:54:08;;;;;;;;;;;;;;;29.78;60.80;100028.44;4399035;32;20008;-93
2022/05/05 11:56:34;;;;;;;;;;;;;;;29.81;60.80;100033.47;4399138;32;20048;-91
2022/05/05 12:01:58;;;;;;;;;;;;;;;29.96;60.81;100023.75;4413748;32;20000;-91
2022/05/05 12:04:24;;;;;;;;;;;;;;;29.96;60.81;100015.69;4399022;32;19993;-92
2022/05/05 12:06:49;;;;;;;;;;;;;;;30.00;60.81;100008.16;4398946;32;20016;-93
2022/05/05 12:09:14;;;;;;;;;;;;;;;29.98;60.80;100013.69;4399329;32;20001;-93
2022/05/05 12:11:42;;;;;;;;;;;;;;;30.06;60.81;100010.22;4411592;32;20240;-93
2022/05/05 12:14:09;;;;;;;;;;;;;;;30.07;60.81;100012.72;4399396;32;19991;-92
2022/05/05 12:16:34;;;;;;;;;;;;;;;30.28;60.83;100006.81;4411900;32;20030;-93
2022/05/05 12:19:00;;;;;;;;;;;;;;;30.43;60.82;100002.44;4399339;32;20008;-92
2022/05/05 12:21:26;;;;;;;;;;;;;;;30.52;60.83;99998.75;4401596;32;19993;-94
2022/05/05 12:23:55;;;;;;;;;;;;;;;30.57;60.83;100002.75;4399544;32;19978;-93
2022/05/05 12:26:20;;;;;;;;;;;;;;;30.67;60.85;99998.06;4398865;32;20036;-94
2022/05/05 12:28:49;;;;;;;;;;;;;;;30.55;60.83;100003.78;4398700;32;20060;-94
2022/05/05 12:31:21;;;;;;;;;;;;;;;30.45;60.83;100010.31;4398812;32;20753;-94
2022/05/05 12:33:47;;;;;;;;;;;;;;;30.47;60.84;100013.69;4398783;32;19973;-94
2022/05/05 12:36:13;;;;;;;;;;;;;;;30.45;60.83;100004.94;4398993;32;19985;-94
2022/05/05 12:38:38;;;;;;;;;;;;;;;30.46;60.84;100001.25;4398972;32;20329;-93
2022/05/05 12:41:07;;;;;;;;;;;;;;;30.41;60.83;100004.47;4398861;32;20013;-94
2022/05/05 12:43:32;;;;;;;;;;;;;;;30.54;60.84;100002.09;4398842;32;19987;-93
2022/05/05 12:46:01;;;;;;;;;;;;;;;30.59;60.85;100001.56;4398618;32;19985;-94
2022/05/05 12:48:27;;;;;;;;;;;;;;;30.54;60.84;99998.56;4411568;32;19993;-93
2022/05/05 12:50:53;;;;;;;;;;;;;;;30.18;60.82;99995.44;4411667;32;19997;-94
2022/05/05 13:01:35;;;;;;;;;;;;;;;30.27;60.83;99997.09;4413679;32;19995;-93
2022/05/05 13:04:08;;;;;;;;;;;;;;;30.20;60.83;99996.09;4399141;32;19978;-92
2022/05/05 13:06:34;;;;;;;;;;;;;;;30.36;60.84;99989.88;4411322;32;19974;-94
2022/05/05 13:09:00;;;;;;;;;;;;;;;30.37;60.83;99991.56;4399013;32;20009;-94
2022/05/05 13:11:25;;;;;;;;;;;;;;;30.34;60.83;99991.88;4398775;32;19998;-93
2022/05/05 13:13:51;;;;;;;;;;;;;;;30.29;60.83;99986.19;4411176;32;19978;-94
2022/05/05 13:16:16;;;;;;;;;;;;;;;30.31;60.83;99981.50;4398978;32;19985;-94
2022/05/05 13:18:41;;;;;;;;;;;;;;;30.46;60.83;99987.81;4398797;32;20304;-93
2022/05/05 13:21:07;;;;;;;;;;;;;;;30.49;60.83;99987.47;4411913;32;20021;-93
2022/05/05 13:23:32;;;;;;;;;;;;;;;30.57;60.83;99986.66;4398666;32;20000;-92
2022/05/05 13:25:57;;;;;;;;;;;;;;;30.47;60.84;99982.28;4398801;32;19996;-93
2022/05/05 13:28:22;;;;;;;;;;;;;;;30.54;60.84;99977.91;4398358;32;19997;-93
2022/05/05 13:30:48;;;;;;;;;;;;;;;30.50;60.83;99981.09;4398812;32;20029;-93
2022/05/05 13:33:13;;;;;;;;;;;;;;;30.35;60.83;99978.28;4411299;32;19998;-92